City Of Cleveland — WDC2358 — position and weather

sailwx.info

Track history (hours):
 
Tides and Currents Weather Stations Pressure Air Temp Water Temp Dewpoint Dewpoint Depression Visibility Wind Speed Wind Dir Waves Ship Positions

City Of Cleveland

Owner: JANTRAN, INC., ROSEDALE, MS. More information available from US FCC via Universal Licensing System and Coast Guard Vessel Documentation Center.

Last reported at 2017-May-17 21:28 UTC. Time now 2017-May-26 15:02 UTC.
Position N 32°34' W 091°07'.
Warning: this ship's position is 8 days out of date.

Length 42 m; draft 12.5 m.

Type: Towing. MMSI: 366991810.

Date/timePositionNaut miles runAvg speedWind from/ knotsBaromVisibWave heightAir tempDewpointWater temp
2017-May-17 21:28N 32°34' W 091°07'2 4.0
2017-May-17 20:58N 32°32' W 091°07'2 4.1
2017-May-17 20:30N 32°30' W 091°07'2 3.6
2017-May-17 20:00N 32°28' W 091°06'2 3.8
2017-May-17 19:30N 32°27' W 091°04'2 4.4
2017-May-17 19:00N 32°26' W 091°02'2 3.5
2017-May-17 18:30N 32°25' W 091°01'2 3.4
2017-May-17 18:00N 32°23' W 091°00'2 3.9
2017-May-17 17:31N 32°21' W 090°60'1 2.6
2017-May-17 17:00N 32°21' W 090°58'1 1.6
2017-May-17 16:30N 32°21' W 090°58'2 3.9
2017-May-17 16:00N 32°21' W 090°55'1 2.8
2017-May-17 15:30N 32°20' W 090°54'0 0.9
2017-May-17 15:01N 32°20' W 090°54'0 0.0
2017-May-17 14:31N 32°20' W 090°54'0 0.1
2017-May-17 13:30N 32°20' W 090°54'0 0.1
2017-May-17 13:00N 32°20' W 090°54'0 0.0
2017-May-17 12:30N 32°20' W 090°54'0 0.0
2017-May-17 12:00N 32°20' W 090°54'0 0.0
2017-May-17 11:30N 32°20' W 090°54'0 0.0
2017-May-17 11:00N 32°20' W 090°54'0 0.0
2017-May-17 10:31N 32°20' W 090°54'0 0.0
2017-May-17 10:00N 32°20' W 090°54'0 0.1
2017-May-17 09:30N 32°20' W 090°54'0 0.3
2017-May-17 09:01N 32°20' W 090°54'0 0.0
2017-May-17 08:30N 32°20' W 090°54'0 0.0
2017-May-17 08:01N 32°20' W 090°54'0 0.0
2017-May-17 07:30N 32°20' W 090°54'0 0.0
2017-May-17 07:01N 32°20' W 090°54'0 0.2
2017-May-17 06:30N 32°20' W 090°54'0 0.8
2017-May-17 06:00N 32°20' W 090°54'0 0.7
2017-May-17 05:30N 32°20' W 090°54'0 0.0
2017-May-17 05:00N 32°20' W 090°54'0 0.0
2017-May-17 04:30N 32°20' W 090°54'0 0.0
2017-May-17 04:00N 32°20' W 090°54'0 0.0
2017-May-17 03:30N 32°20' W 090°54'0 0.0
2017-May-17 03:00N 32°20' W 090°54'0 0.0
2017-May-17 02:30N 32°20' W 090°54'0 0.0
2017-May-17 02:00N 32°20' W 090°54'0 0.1
2017-May-17 01:30N 32°20' W 090°54'0 0.9
2017-May-17 01:00N 32°20' W 090°54'1 2.0
2017-May-17 00:30N 32°19' W 090°55'2 4.3
2017-May-17 00:01N 32°17' W 090°56'1 3.0
2017-May-16 23:30N 32°16' W 090°57'2 4.1
2017-May-16 23:00N 32°14' W 090°58'2 4.0
2017-May-16 22:30N 32°12' W 090°59'2 3.3
2017-May-16 22:00N 32°11' W 090°60'2 4.5
2017-May-16 21:31N 32°09' W 091°00'2 3.6
2017-May-16 21:00N 32°08' W 091°02'2 4.2
2017-May-16 20:30N 32°08' W 091°04'2 3.2
2017-May-16 20:00N 32°07' W 091°06'2 3.6
2017-May-16 19:30N 32°05' W 091°05'2 4.0
2017-May-16 18:58N 32°03' W 091°05'2 3.4
2017-May-16 18:30N 32°02' W 091°04'  
Track history (hours):
 
Tides and Currents Weather Stations Pressure Air Temp Water Temp Dewpoint Dewpoint Depression Visibility Wind Speed Wind Dir Waves Ship Positions

City Of Cleveland

Owner: JANTRAN, INC., ROSEDALE, MS. More information available from US FCC via Universal Licensing System and Coast Guard Vessel Documentation Center.

Last reported at 2017-May-17 21:28 UTC. Time now 2017-May-26 15:02 UTC.
Position N 32°34' W 091°07'.
Warning: this ship's position is 8 days out of date.

Length 42 m; draft 12.5 m.

Type: Towing. MMSI: 366991810.

Date/timePositionNaut miles runAvg speedWind from/ knotsBaromVisibWave heightAir tempDewpointWater temp
2017-May-17 21:28N 32°34' W 091°07'2 4.0
2017-May-17 20:58N 32°32' W 091°07'2 4.1
2017-May-17 20:30N 32°30' W 091°07'2 3.6
2017-May-17 20:00N 32°28' W 091°06'2 3.8
2017-May-17 19:30N 32°27' W 091°04'2 4.4
2017-May-17 19:00N 32°26' W 091°02'2 3.5
2017-May-17 18:30N 32°25' W 091°01'2 3.4
2017-May-17 18:00N 32°23' W 091°00'2 3.9
2017-May-17 17:31N 32°21' W 090°60'1 2.6
2017-May-17 17:00N 32°21' W 090°58'1 1.6
2017-May-17 16:30N 32°21' W 090°58'2 3.9
2017-May-17 16:00N 32°21' W 090°55'1 2.8
2017-May-17 15:30N 32°20' W 090°54'0 0.9
2017-May-17 15:01N 32°20' W 090°54'0 0.0
2017-May-17 14:31N 32°20' W 090°54'0 0.1
2017-May-17 13:30N 32°20' W 090°54'0 0.1
2017-May-17 13:00N 32°20' W 090°54'0 0.0
2017-May-17 12:30N 32°20' W 090°54'0 0.0
2017-May-17 12:00N 32°20' W 090°54'0 0.0
2017-May-17 11:30N 32°20' W 090°54'0 0.0
2017-May-17 11:00N 32°20' W 090°54'0 0.0
2017-May-17 10:31N 32°20' W 090°54'0 0.0
2017-May-17 10:00N 32°20' W 090°54'0 0.1
2017-May-17 09:30N 32°20' W 090°54'0 0.3
2017-May-17 09:01N 32°20' W 090°54'0 0.0
2017-May-17 08:30N 32°20' W 090°54'0 0.0
2017-May-17 08:01N 32°20' W 090°54'0 0.0
2017-May-17 07:30N 32°20' W 090°54'0 0.0
2017-May-17 07:01N 32°20' W 090°54'0 0.2
2017-May-17 06:30N 32°20' W 090°54'0 0.8
2017-May-17 06:00N 32°20' W 090°54'0 0.7
2017-May-17 05:30N 32°20' W 090°54'0 0.0
2017-May-17 05:00N 32°20' W 090°54'0 0.0
2017-May-17 04:30N 32°20' W 090°54'0 0.0
2017-May-17 04:00N 32°20' W 090°54'0 0.0
2017-May-17 03:30N 32°20' W 090°54'0 0.0
2017-May-17 03:00N 32°20' W 090°54'0 0.0
2017-May-17 02:30N 32°20' W 090°54'0 0.0
2017-May-17 02:00N 32°20' W 090°54'0 0.1
2017-May-17 01:30N 32°20' W 090°54'0 0.9
2017-May-17 01:00N 32°20' W 090°54'1 2.0
2017-May-17 00:30N 32°19' W 090°55'2 4.3
2017-May-17 00:01N 32°17' W 090°56'1 3.0
2017-May-16 23:30N 32°16' W 090°57'2 4.1
2017-May-16 23:00N 32°14' W 090°58'2 4.0
2017-May-16 22:30N 32°12' W 090°59'2 3.3
2017-May-16 22:00N 32°11' W 090°60'2 4.5
2017-May-16 21:31N 32°09' W 091°00'2 3.6
2017-May-16 21:00N 32°08' W 091°02'2 4.2
2017-May-16 20:30N 32°08' W 091°04'2 3.2
2017-May-16 20:00N 32°07' W 091°06'2 3.6
2017-May-16 19:30N 32°05' W 091°05'2 4.0
2017-May-16 18:58N 32°03' W 091°05'2 3.4
2017-May-16 18:30N 32°02' W 091°04'  

Dump ship's entire track history